createdAt,value
2023-04-16T00:02:25.566Z,9.99
2023-04-16T00:04:55.092Z,9.83
2023-04-16T00:07:25.896Z,9.82
2023-04-16T00:09:56.253Z,9.84
2023-04-16T00:12:26.253Z,9.84
2023-04-16T00:14:55.768Z,9.74
2023-04-16T00:17:25.715Z,9.72
2023-04-16T00:19:56.106Z,9.76
2023-04-16T00:22:27.186Z,9.73
2023-04-16T00:24:57.633Z,9.70
2023-04-16T00:27:26.550Z,9.68
2023-04-16T00:29:56.897Z,9.60
2023-04-16T00:32:28.113Z,9.61
2023-04-16T00:34:57.030Z,9.64
2023-04-16T00:37:29.210Z,9.65
2023-04-16T00:39:59.570Z,9.59
2023-04-16T00:42:29.102Z,9.59
2023-04-16T00:44:58.668Z,9.52
2023-04-16T00:47:28.936Z,9.54
2023-04-16T00:49:58.439Z,9.54
2023-04-16T00:52:33.060Z,9.51
2023-04-16T00:55:03.360Z,9.49
2023-04-16T00:57:34.465Z,9.47
2023-04-16T01:00:04.637Z,9.49
2023-04-16T01:02:36.352Z,9.45
2023-04-16T01:05:10.081Z,9.43
2023-04-16T01:07:40.382Z,9.45
2023-04-16T01:10:12.913Z,9.44
2023-04-16T01:12:43.033Z,9.43
2023-04-16T01:15:13.247Z,9.36
2023-04-16T01:17:43.814Z,9.38
2023-04-16T01:20:13.673Z,9.34
2023-04-16T01:22:45.228Z,9.33
2023-04-16T01:25:16.915Z,9.31
2023-04-16T01:27:46.323Z,9.27
2023-04-16T01:30:15.745Z,9.35
2023-04-16T01:32:47.248Z,9.38
2023-04-16T01:35:18.684Z,9.38
2023-04-16T01:37:51.385Z,9.39
2023-04-16T01:40:21.323Z,9.40
2023-04-16T01:42:51.202Z,9.42
2023-04-16T01:45:21.926Z,9.40
2023-04-16T01:47:52.005Z,9.37
2023-04-16T01:50:21.770Z,9.39
2023-04-16T01:52:53.057Z,9.41
2023-04-16T01:55:22.998Z,9.41
2023-04-16T01:57:54.359Z,9.40
2023-04-16T02:00:24.609Z,9.34
2023-04-16T02:02:55.049Z,9.39
2023-04-16T02:05:24.118Z,9.41
2023-04-16T02:07:54.818Z,9.42
2023-04-16T02:10:26.025Z,9.43
2023-04-16T02:12:54.958Z,9.46
2023-04-16T02:15:25.428Z,9.46
2023-04-16T02:17:57.144Z,9.49
2023-04-16T02:20:26.286Z,9.48
2023-04-16T02:22:57.156Z,9.51
2023-04-16T02:25:27.988Z,9.50
2023-04-16T02:27:57.334Z,9.48
2023-04-16T02:30:27.314Z,9.51
2023-04-16T02:32:57.946Z,9.46
2023-04-16T02:35:29.461Z,9.44
2023-04-16T02:38:00.406Z,9.47
2023-04-16T02:40:30.434Z,9.47
2023-04-16T02:42:59.980Z,9.42
2023-04-16T02:45:29.466Z,9.41
2023-04-16T02:48:00.121Z,9.38
2023-04-16T02:50:30.029Z,9.41
2023-04-16T02:53:01.896Z,9.42
2023-04-16T02:55:31.880Z,9.42
2023-04-16T02:58:01.217Z,9.39
2023-04-16T03:00:31.213Z,9.32
2023-04-16T03:03:00.788Z,9.37
2023-04-16T03:05:30.394Z,9.40
2023-04-16T03:08:01.757Z,9.43
2023-04-16T03:10:31.493Z,9.41
2023-04-16T03:13:01.415Z,9.38
2023-04-16T03:15:31.624Z,9.38
2023-04-16T03:18:01.556Z,9.36
2023-04-16T03:20:31.047Z,9.37
2023-04-16T03:23:01.352Z,9.36
2023-04-16T03:25:31.825Z,9.32
2023-04-16T03:28:03.784Z,9.28
2023-04-16T03:30:32.791Z,9.27
2023-04-16T03:33:03.255Z,9.27
2023-04-16T03:35:33.356Z,9.27
2023-04-16T03:38:04.335Z,9.26
2023-04-16T03:40:34.362Z,9.29
2023-04-16T03:43:04.669Z,9.23
2023-04-16T03:45:35.593Z,9.22
2023-04-16T03:48:05.449Z,9.19
2023-04-16T03:50:35.472Z,9.18
2023-04-16T03:53:07.208Z,9.17
2023-04-16T03:55:37.239Z,9.15
2023-04-16T03:58:08.219Z,9.19
2023-04-16T04:00:37.949Z,9.18
2023-04-16T04:03:08.272Z,9.18
2023-04-16T04:05:40.166Z,9.22
2023-04-16T04:08:12.400Z,9.21
2023-04-16T04:10:42.772Z,9.07
2023-04-16T04:13:13.812Z,9.08
2023-04-16T04:15:45.534Z,9.06
2023-04-16T04:18:16.710Z,9.05
2023-04-16T04:20:46.936Z,8.94
2023-04-16T04:23:18.976Z,9.03
2023-04-16T04:25:49.516Z,9.04
2023-04-16T04:28:19.124Z,9.08
2023-04-16T04:30:49.509Z,9.03
2023-04-16T04:33:18.926Z,9.00
2023-04-16T04:35:49.005Z,8.90
2023-04-16T04:38:22.227Z,8.93
2023-04-16T04:40:52.202Z,8.99
2023-04-16T04:43:21.688Z,9.02
2023-04-16T04:45:52.144Z,9.03
2023-04-16T04:48:26.239Z,9.03
2023-04-16T04:50:55.956Z,9.01
2023-04-16T04:53:26.974Z,9.04
2023-04-16T04:56:05.390Z,9.00
2023-04-16T04:58:42.291Z,9.01
2023-04-16T05:01:12.778Z,9.02
2023-04-16T05:03:42.833Z,9.01
2023-04-16T05:06:12.827Z,9.00
2023-04-16T05:08:43.679Z,9.01
2023-04-16T05:11:13.605Z,8.98
2023-04-16T05:13:44.704Z,8.99
2023-04-16T05:16:15.181Z,8.98
2023-04-16T05:18:45.233Z,9.04
2023-04-16T05:21:13.677Z,9.02
2023-04-16T05:23:44.479Z,9.00
2023-04-16T05:26:14.457Z,9.00
2023-04-16T05:28:43.951Z,9.05
2023-04-16T05:31:14.542Z,9.02
2023-04-16T05:33:44.623Z,9.02
2023-04-16T05:36:16.154Z,9.01
2023-04-16T05:38:47.821Z,9.05
2023-04-16T05:41:18.066Z,9.08
2023-04-16T05:43:48.499Z,9.12
2023-04-16T05:46:18.485Z,9.11
2023-04-16T05:48:48.545Z,9.13
2023-04-16T05:51:19.506Z,9.14
2023-04-16T05:53:51.529Z,9.18
2023-04-16T05:56:22.489Z,9.19
2023-04-16T05:58:52.917Z,9.20
2023-04-16T06:01:23.849Z,9.23
2023-04-16T06:03:53.341Z,9.26
2023-04-16T06:06:22.458Z,9.22
2023-04-16T06:08:54.478Z,9.18
2023-04-16T06:11:25.131Z,9.22
2023-04-16T06:13:55.312Z,9.23
2023-04-16T06:16:24.714Z,9.28
2023-04-16T06:18:54.936Z,9.30
2023-04-16T06:21:26.784Z,9.34
2023-04-16T06:23:58.190Z,9.34
2023-04-16T06:26:28.112Z,9.32
2023-04-16T06:28:58.440Z,9.36
2023-04-16T06:31:30.472Z,9.33
2023-04-16T06:34:00.874Z,9.35
2023-04-16T06:36:29.917Z,9.40
2023-04-16T06:39:00.915Z,9.42
2023-04-16T06:41:31.070Z,9.43
2023-04-16T06:44:00.666Z,9.43
2023-04-16T06:46:30.742Z,9.44
2023-04-16T06:49:03.199Z,9.48
2023-04-16T06:51:33.470Z,9.52
2023-04-16T06:54:04.602Z,9.49
2023-04-16T06:56:34.355Z,9.40
2023-04-16T06:59:04.536Z,9.44
2023-04-16T07:01:34.882Z,9.43
2023-04-16T07:04:04.460Z,9.47
2023-04-16T07:06:35.464Z,9.51
2023-04-16T07:09:07.137Z,9.57
2023-04-16T07:11:37.454Z,9.61
2023-04-16T07:14:08.062Z,9.59
2023-04-16T07:16:38.327Z,9.63
2023-04-16T07:19:08.152Z,9.63
2023-04-16T07:21:37.031Z,9.64
2023-04-16T07:24:09.555Z,9.68
2023-04-16T07:26:39.274Z,9.68
2023-04-16T07:29:09.109Z,9.73
2023-04-16T07:31:40.484Z,9.79
2023-04-16T07:34:09.510Z,9.83
2023-04-16T07:36:38.686Z,9.83
2023-04-16T07:39:11.034Z,9.85
2023-04-16T07:41:41.620Z,9.91
2023-04-16T07:44:11.313Z,9.89
2023-04-16T07:46:46.803Z,9.93
2023-04-16T07:49:16.689Z,9.95
2023-04-16T07:51:45.875Z,9.98
2023-04-16T07:54:16.382Z,9.97
2023-04-16T07:56:46.968Z,9.98
2023-04-16T08:01:47.572Z,9.96
2023-04-16T08:04:23.681Z,9.95
2023-04-16T08:06:52.952Z,9.95
2023-04-16T08:09:25.707Z,9.98
2023-04-16T08:11:56.120Z,9.97
2023-04-16T08:14:24.498Z,9.97
2023-04-16T08:16:53.374Z,9.93
2023-04-16T08:19:23.343Z,9.92
2023-04-16T08:21:54.003Z,9.90
2023-04-16T08:24:24.981Z,9.89
2023-04-16T08:26:55.874Z,9.90
2023-04-16T08:29:28.452Z,9.91
2023-04-16T08:31:57.422Z,9.92
2023-04-16T08:34:27.012Z,9.97
2023-04-16T08:36:56.378Z,10.01
2023-04-16T08:39:26.183Z,10.02
2023-04-16T08:41:58.583Z,10.06
2023-04-16T08:44:34.267Z,10.07
2023-04-16T08:47:04.962Z,10.05
2023-04-16T08:49:44.875Z,10.12
2023-04-16T08:52:20.471Z,10.15
2023-04-16T08:55:06.993Z,10.21
2023-04-16T08:57:47.038Z,10.22
2023-04-16T09:00:18.722Z,10.26
2023-04-16T09:02:50.840Z,10.26
2023-04-16T09:05:21.957Z,10.29
2023-04-16T09:07:51.589Z,10.29
2023-04-16T09:10:23.266Z,10.33
2023-04-16T09:12:53.220Z,10.34
2023-04-16T09:15:23.062Z,10.37
2023-04-16T09:17:52.860Z,10.38
2023-04-16T09:20:22.991Z,10.40
2023-04-16T09:22:52.579Z,10.40
2023-04-16T09:25:23.572Z,10.42
2023-04-16T09:27:53.650Z,10.44
2023-04-16T09:30:28.286Z,10.45
2023-04-16T09:33:22.492Z,10.44
2023-04-16T09:35:55.141Z,10.47
2023-04-16T09:38:24.179Z,10.49
2023-04-16T09:41:09.468Z,10.50
2023-04-16T09:43:41.108Z,10.49
2023-04-16T09:46:13.795Z,10.48
2023-04-16T09:48:43.314Z,10.45
2023-04-16T09:51:13.053Z,10.51
2023-04-16T09:53:43.107Z,10.50
2023-04-16T09:56:14.742Z,10.51
2023-04-16T09:58:44.277Z,10.55
2023-04-16T10:01:14.973Z,10.52
2023-04-16T10:03:45.304Z,10.54
2023-04-16T10:06:19.361Z,10.61
2023-04-16T10:08:50.632Z,10.62
2023-04-16T10:11:22.893Z,10.59
2023-04-16T10:13:53.943Z,10.64
2023-04-16T10:16:25.020Z,10.65
2023-04-16T10:18:55.221Z,10.67
2023-04-16T10:21:26.497Z,10.67
2023-04-16T10:23:56.728Z,10.74
2023-04-16T10:26:28.716Z,10.80
2023-04-16T10:29:00.062Z,10.86
2023-04-16T10:31:30.469Z,10.93
2023-04-16T10:34:04.389Z,10.95
2023-04-16T10:36:38.689Z,11.00
2023-04-16T10:39:14.780Z,11.09
2023-04-16T10:41:47.209Z,11.18
2023-04-16T10:44:20.443Z,11.26
2023-04-16T10:46:50.896Z,11.30
2023-04-16T10:49:26.091Z,11.37
2023-04-16T10:51:58.322Z,11.41
2023-04-16T10:54:30.525Z,11.48
2023-04-16T10:57:05.211Z,11.52
2023-04-16T10:59:36.777Z,11.63
2023-04-16T11:02:13.134Z,11.63
2023-04-16T11:04:45.454Z,11.66
2023-04-16T11:07:21.558Z,11.73
2023-04-16T11:09:59.575Z,11.81
2023-04-16T11:12:38.580Z,11.88
2023-04-16T11:15:13.339Z,11.88
2023-04-16T11:17:45.024Z,11.93
2023-04-16T11:20:21.652Z,11.93
2023-04-16T11:22:51.334Z,11.94
2023-04-16T11:25:24.075Z,12.04
2023-04-16T11:27:55.465Z,12.07
2023-04-16T11:30:32.574Z,12.11
2023-04-16T11:33:04.052Z,12.18
2023-04-16T11:35:33.276Z,12.23
2023-04-16T11:38:01.793Z,12.27
2023-04-16T11:40:32.725Z,12.33
2023-04-16T11:43:14.405Z,12.35
2023-04-16T11:45:57.403Z,12.42
2023-04-16T11:48:27.198Z,12.48
2023-04-16T11:50:59.998Z,12.55
2023-04-16T11:53:29.022Z,12.57
2023-04-16T11:55:59.070Z,12.63
2023-04-16T11:58:30.402Z,12.69
2023-04-16T12:01:00.399Z,12.71
2023-04-16T12:03:44.356Z,12.69
2023-04-16T12:06:14.401Z,12.75
2023-04-16T12:08:44.922Z,12.83
2023-04-16T12:11:13.787Z,12.93
2023-04-16T12:13:45.277Z,12.87
2023-04-16T12:16:22.401Z,12.89
2023-04-16T12:19:03.458Z,12.93
2023-04-16T12:21:40.986Z,12.99
2023-04-16T12:24:13.794Z,13.04
2023-04-16T12:26:45.421Z,13.04
2023-04-16T12:29:21.678Z,13.12
2023-04-16T12:31:53.027Z,13.17
2023-04-16T12:34:27.723Z,13.21
2023-04-16T12:37:15.436Z,13.21
2023-04-16T12:39:47.906Z,13.23
2023-04-16T12:42:16.425Z,13.20
2023-04-16T12:44:46.793Z,13.16
2023-04-16T12:47:16.204Z,13.09
2023-04-16T12:49:46.392Z,13.17
2023-04-16T12:52:16.503Z,13.12
2023-04-16T12:54:47.190Z,13.18
2023-04-16T12:57:16.152Z,13.10
2023-04-16T12:59:47.656Z,13.17
2023-04-16T13:02:17.157Z,13.11
2023-04-16T13:04:47.289Z,13.17
2023-04-16T13:07:16.850Z,13.02
2023-04-16T13:09:46.799Z,13.09
2023-04-16T13:12:15.696Z,13.08
2023-04-16T13:14:46.917Z,12.98
2023-04-16T13:17:17.603Z,13.05
2023-04-16T13:19:46.977Z,13.06
2023-04-16T13:22:16.086Z,13.13
2023-04-16T13:24:44.907Z,13.08
2023-04-16T13:27:16.185Z,13.14
2023-04-16T13:29:47.695Z,13.20
2023-04-16T13:32:19.492Z,13.32
2023-04-16T13:34:48.390Z,13.24
2023-04-16T13:37:17.677Z,13.34
2023-04-16T13:39:47.886Z,13.39
2023-04-16T13:42:17.433Z,13.45
2023-04-16T13:44:53.572Z,13.43
2023-04-16T13:47:22.859Z,13.59
2023-04-16T13:49:51.802Z,13.70
2023-04-16T13:52:20.725Z,13.83
2023-04-16T13:54:49.676Z,13.84
2023-04-16T13:57:19.872Z,13.84
2023-04-16T13:59:50.848Z,13.74
2023-04-16T14:02:19.414Z,13.72
2023-04-16T14:04:49.141Z,13.77
2023-04-16T14:07:19.234Z,13.73
2023-04-16T14:09:48.187Z,13.68
2023-04-16T14:12:18.217Z,13.54
2023-04-16T14:14:47.730Z,13.57
2023-04-16T14:17:18.615Z,13.55
2023-04-16T14:19:47.717Z,13.58
2023-04-16T14:22:18.505Z,13.57
2023-04-16T14:24:48.383Z,13.59
2023-04-16T14:27:17.047Z,13.60
2023-04-16T14:29:47.592Z,13.60
2023-04-16T14:32:19.125Z,13.56
2023-04-16T14:34:49.183Z,13.63
2023-04-16T14:37:19.505Z,13.56
2023-04-16T14:39:49.833Z,13.57
2023-04-16T14:42:19.891Z,13.60
2023-04-16T14:44:49.862Z,13.58
2023-04-16T14:47:19.672Z,13.58
2023-04-16T14:49:48.632Z,13.54
2023-04-16T14:52:19.794Z,13.48
2023-04-16T14:54:49.812Z,13.42
2023-04-16T14:57:20.284Z,13.28
2023-04-16T14:59:50.346Z,13.22
2023-04-16T15:02:22.124Z,13.23
2023-04-16T15:04:51.360Z,13.30
2023-04-16T15:07:21.313Z,13.35
2023-04-16T15:09:51.586Z,13.36
2023-04-16T15:12:22.370Z,13.45
2023-04-16T15:14:51.737Z,13.40
2023-04-16T15:17:23.286Z,13.40
2023-04-16T15:19:54.172Z,13.39
2023-04-16T15:22:23.129Z,13.40
2023-04-16T15:24:51.697Z,13.34
2023-04-16T15:27:20.795Z,13.35
2023-04-16T15:29:50.289Z,13.43
2023-04-16T15:32:20.360Z,13.39
2023-04-16T15:34:51.453Z,13.35
2023-04-16T15:37:22.619Z,13.40
2023-04-16T15:39:52.544Z,13.50
2023-04-16T15:42:22.531Z,13.40
2023-04-16T15:44:52.137Z,13.40
2023-04-16T15:47:21.582Z,13.37
2023-04-16T15:49:51.815Z,13.36
2023-04-16T15:52:21.552Z,13.40
2023-04-16T15:54:51.909Z,13.33
2023-04-16T15:57:21.848Z,13.38
2023-04-16T16:00:08.745Z,13.43
2023-04-16T16:02:39.481Z,13.42
2023-04-16T16:05:12.716Z,13.34
2023-04-16T16:07:42.389Z,13.24
2023-04-16T16:10:13.597Z,13.14
2023-04-16T16:12:42.778Z,13.09
2023-04-16T16:15:12.524Z,13.16
2023-04-16T16:17:41.858Z,13.17
2023-04-16T16:20:12.823Z,13.06
2023-04-16T16:22:45.284Z,13.06
2023-04-16T16:25:15.294Z,13.09
2023-04-16T16:27:44.872Z,13.05
2023-04-16T16:30:16.357Z,13.05
2023-04-16T16:32:47.253Z,13.03
2023-04-16T16:35:19.200Z,13.02
2023-04-16T16:37:49.129Z,13.00
2023-04-16T16:40:18.662Z,13.02
2023-04-16T16:42:48.041Z,13.02
2023-04-16T16:45:16.864Z,13.03
2023-04-16T16:47:46.927Z,13.03
2023-04-16T16:50:18.169Z,13.06
2023-04-16T16:52:47.207Z,12.99
2023-04-16T16:55:18.314Z,12.94
2023-04-16T16:57:49.498Z,13.01
2023-04-16T17:00:23.304Z,13.00
2023-04-16T17:02:53.455Z,12.98
2023-04-16T17:05:24.164Z,12.90
2023-04-16T17:07:53.044Z,12.91
2023-04-16T17:10:23.228Z,12.91
2023-04-16T17:12:52.856Z,12.90
2023-04-16T17:15:22.098Z,12.87
2023-04-16T17:17:51.107Z,12.83
2023-04-16T17:20:20.928Z,12.86
2023-04-16T17:22:52.281Z,12.82
2023-04-16T17:25:21.514Z,12.79
2023-04-16T17:27:51.550Z,12.74
2023-04-16T17:30:21.407Z,12.66
2023-04-16T17:32:51.035Z,12.61
2023-04-16T17:35:21.059Z,12.65
2023-04-16T17:37:51.778Z,12.63
2023-04-16T17:40:20.486Z,12.61
2023-04-16T17:42:51.412Z,12.62
2023-04-16T17:45:20.563Z,12.63
2023-04-16T17:47:49.567Z,12.53
2023-04-16T17:50:19.749Z,12.51
2023-04-16T17:52:51.352Z,12.46
2023-04-16T17:55:21.279Z,12.46
2023-04-16T17:57:52.482Z,12.48
2023-04-16T18:00:23.637Z,12.46
2023-04-16T18:02:53.435Z,12.36
2023-04-16T18:05:22.642Z,12.35
2023-04-16T18:07:53.371Z,12.36
2023-04-16T18:10:22.964Z,12.36
2023-04-16T18:12:51.855Z,12.36
2023-04-16T18:15:21.271Z,12.35
2023-04-16T18:17:51.109Z,12.35
2023-04-16T18:20:21.539Z,12.31
2023-04-16T18:22:52.812Z,12.30
2023-04-16T18:25:32.239Z,12.29
2023-04-16T18:28:04.643Z,12.24
2023-04-16T18:30:36.131Z,12.23
2023-04-16T18:33:37.438Z,12.21
2023-04-16T18:35:55.562Z,12.18
2023-04-16T18:38:26.801Z,12.17
2023-04-16T18:40:56.881Z,12.17
2023-04-16T18:43:26.414Z,12.10
2023-04-16T18:45:55.823Z,12.08
2023-04-16T18:48:26.120Z,12.09
2023-04-16T18:50:58.098Z,12.07
2023-04-16T18:53:29.165Z,12.03
2023-04-16T18:55:59.977Z,12.02
2023-04-16T18:58:29.152Z,12.04
2023-04-16T19:00:59.475Z,12.03
2023-04-16T19:03:31.007Z,12.01
2023-04-16T19:06:01.070Z,12.00
2023-04-16T19:08:32.257Z,12.00
2023-04-16T19:11:01.489Z,11.96
2023-04-16T19:13:32.817Z,11.97
2023-04-16T19:16:06.032Z,11.96
2023-04-16T19:18:36.368Z,11.94
2023-04-16T19:21:07.152Z,11.88
2023-04-16T19:23:38.562Z,11.90
2023-04-16T19:26:08.064Z,11.93
2023-04-16T19:28:38.890Z,11.85
2023-04-16T19:31:10.246Z,11.87
2023-04-16T19:33:41.781Z,11.84
2023-04-16T19:36:11.221Z,11.82
2023-04-16T19:38:43.250Z,11.75
2023-04-16T19:41:13.226Z,11.71
2023-04-16T19:43:42.782Z,11.71
2023-04-16T19:46:12.840Z,11.67
2023-04-16T19:48:42.902Z,11.63
2023-04-16T19:51:13.919Z,11.59
2023-04-16T19:53:46.391Z,11.60
2023-04-16T19:56:17.908Z,11.58
2023-04-16T19:58:48.360Z,11.48
2023-04-16T20:01:17.365Z,11.45
2023-04-16T20:03:46.759Z,11.44
2023-04-16T20:06:17.477Z,11.48
2023-04-16T20:08:49.350Z,11.44
2023-04-16T20:11:19.425Z,11.40
2023-04-16T20:13:48.945Z,11.42
2023-04-16T20:16:23.355Z,11.35
2023-04-16T20:18:54.825Z,11.33
2023-04-16T20:21:25.667Z,11.31
2023-04-16T20:23:57.019Z,11.34
2023-04-16T20:26:28.567Z,11.35
2023-04-16T20:28:57.597Z,11.30
2023-04-16T20:31:27.434Z,11.29
2023-04-16T20:33:55.960Z,11.27
2023-04-16T20:36:26.605Z,11.23
2023-04-16T20:38:59.939Z,11.25
2023-04-16T20:41:30.339Z,11.26
2023-04-16T20:44:05.745Z,11.21
2023-04-16T20:46:36.318Z,11.21
2023-04-16T20:49:06.299Z,11.21
2023-04-16T20:51:38.468Z,11.17
2023-04-16T20:54:10.877Z,11.16
2023-04-16T20:56:40.198Z,11.16
2023-04-16T20:59:10.295Z,11.09
2023-04-16T21:01:40.804Z,11.10
2023-04-16T21:04:10.788Z,11.09
2023-04-16T21:06:42.927Z,11.09
2023-04-16T21:09:14.695Z,11.08
2023-04-16T21:11:46.450Z,11.04
2023-04-16T21:14:15.625Z,11.06
2023-04-16T21:16:45.613Z,11.07
2023-04-16T21:19:15.621Z,11.07
2023-04-16T21:21:46.759Z,11.07
2023-04-16T21:24:18.816Z,11.07
2023-04-16T21:26:47.876Z,11.04
2023-04-16T21:29:17.889Z,11.00
2023-04-16T21:31:47.342Z,10.94
2023-04-16T21:34:16.862Z,10.95
2023-04-16T21:36:45.337Z,10.89
2023-04-16T21:39:16.589Z,10.92
2023-04-16T21:41:48.690Z,10.88
2023-04-16T21:44:18.152Z,10.85
2023-04-16T21:46:48.147Z,10.85
2023-04-16T21:49:17.638Z,10.88
2023-04-16T21:51:48.338Z,10.87
2023-04-16T21:54:20.766Z,10.88
2023-04-16T21:56:52.227Z,10.89
2023-04-16T21:59:21.627Z,10.90
2023-04-16T22:01:51.618Z,10.92
2023-04-16T22:04:26.720Z,10.91
2023-04-16T22:06:57.706Z,10.91
2023-04-16T22:09:27.343Z,10.89
2023-04-16T22:11:59.354Z,10.92
2023-04-16T22:14:29.590Z,10.92
2023-04-16T22:17:00.328Z,10.90
2023-04-16T22:19:30.145Z,10.87
2023-04-16T22:21:59.728Z,10.87
2023-04-16T22:24:29.970Z,10.87
2023-04-16T22:27:01.983Z,10.88
2023-04-16T22:29:31.305Z,10.88
2023-04-16T22:32:02.609Z,10.85
2023-04-16T22:34:33.221Z,10.81
2023-04-16T22:37:03.151Z,10.77
2023-04-16T22:39:32.650Z,10.75
2023-04-16T22:42:03.699Z,10.74
2023-04-16T22:44:32.556Z,10.68
2023-04-16T22:47:01.503Z,10.69
2023-04-16T22:49:33.731Z,10.71
2023-04-16T22:52:03.046Z,10.70
2023-04-16T22:54:32.235Z,10.72
2023-04-16T22:57:03.099Z,10.70
2023-04-16T22:59:33.545Z,10.68
2023-04-16T23:02:02.975Z,10.70
2023-04-16T23:04:33.870Z,10.72
2023-04-16T23:07:03.846Z,10.73
2023-04-16T23:09:34.798Z,10.75
2023-04-16T23:12:07.937Z,10.75
2023-04-16T23:14:38.484Z,10.72
2023-04-16T23:17:08.384Z,10.73
2023-04-16T23:19:37.839Z,10.73
2023-04-16T23:22:07.830Z,10.74
2023-04-16T23:24:37.424Z,10.71
2023-04-16T23:27:09.377Z,10.71
2023-04-16T23:29:38.665Z,10.72
2023-04-16T23:32:08.351Z,10.74
2023-04-16T23:34:37.272Z,10.74
2023-04-16T23:37:07.153Z,10.74
2023-04-16T23:39:36.662Z,10.67
2023-04-16T23:42:07.813Z,10.66
2023-04-16T23:44:37.368Z,10.67
2023-04-16T23:47:07.621Z,10.68
2023-04-16T23:49:37.355Z,10.64
2023-04-16T23:52:08.387Z,10.65
2023-04-16T23:54:38.384Z,10.65
2023-04-16T23:57:09.753Z,10.65
2023-04-16T23:59:39.105Z,10.63
